Decoded Metar for KMOT (MINOT in ND, USA) (IATA:MOT) | Meteo·Mobile Aviation Weather
aviador You're here:

KMOT Decoded Metar

MINOT in ND, USA
Report Time2019-05-23 09:54:00
UTC Time2019-05-23 10:43:17
Flight Rules vfr VFR
Wind300° at 09 kt
W.Decomp.*RWY 31: 8.5 kt HW 3.1 kt LCW
RWY 26: 7.8 kt HW 4.5 kt RCW
Visibility9999 m
Phenomena:N/A
Clouds:Overcast 090 Hf
Expected CloudBase > 1,200 ft AGL from Temp-Dew spread
Ceiling9,000 ft
Temp07°C (ISA -5)
Dew Point04°C (81% RH)
AAT2.4°C
QNH1017 hPa
Density Alt1,132 ft
Elevation1,703 ft
Report Wrong Elevation
Raw Report
KMOT 230954Z AUTO 30009KT 10SM OVC090 07/04 A3003 RMK AO2 SLP179
T00720039=

Extra information for KMOT:More info

Metar Taf Metar & Taf Last 4 Metars F.Rules Stats Wind Profile Meteogram Temp Stats Airport Information Weather charts Add Link Nearby VenuesMetar ALERT Operation Metar Decoded Social comments

AIRNAV info for KMOT